Time;durP1;ratioP1;P1;durP2;ratioP2;P2;SDS_P1;SDS_P2;PMS_P1;PMS_P2;Temp;Humidity;BMP_temperature;BMP_pressure;BME280_temperature;BME280_humidity;BME280_pressure;Samples;Min_cycle;Max_cycle;Signal;HPM_P1;HPM_P2
2022/04/24 00:01:20;;;;;;;15.35;11.00;;;;;;;10.13;53.35;99178.47;5006741;28;20040;-60
2022/04/24 00:03:46;;;;;;;19.83;10.77;;;;;;;10.19;53.16;99183.34;5025124;28;20400;-63
2022/04/24 00:06:11;;;;;;;21.13;12.27;;;;;;;10.24;53.38;99180.34;5021704;28;20408;-65
2022/04/24 00:08:36;;;;;;;21.27;10.77;;;;;;;10.29;52.95;99181.66;5024701;28;20051;-61
2022/04/24 00:11:01;;;;;;;18.70;11.45;;;;;;;10.34;53.45;99176.00;5022349;28;20119;-62
2022/04/24 00:13:27;;;;;;;15.68;11.02;;;;;;;10.43;52.66;99183.25;4987074;28;20040;-63
2022/04/24 00:15:51;;;;;;;20.38;12.00;;;;;;;10.48;52.33;99178.44;5030567;28;20036;-61
2022/04/24 00:18:16;;;;;;;22.75;11.95;;;;;;;10.55;52.40;99177.81;5016054;28;20514;-63
2022/04/24 00:20:43;;;;;;;25.23;13.52;;;;;;;10.58;52.82;99171.41;5001798;28;20392;-64
2022/04/24 00:23:08;;;;;;;25.02;11.40;;;;;;;10.61;52.50;99171.13;4991676;28;20067;-63
2022/04/24 00:25:33;;;;;;;22.80;12.27;;;;;;;10.66;52.63;99170.78;4990445;28;20496;-63
2022/04/24 00:28:00;;;;;;;23.85;11.27;;;;;;;10.71;52.60;99173.94;5011402;28;20130;-62
2022/04/24 00:30:25;;;;;;;19.30;12.00;;;;;;;10.76;52.41;99171.75;4997688;28;20091;-64
2022/04/24 00:32:50;;;;;;;41.63;23.05;;;;;;;10.80;52.44;99173.22;5016296;28;20064;-66
2022/04/24 00:35:15;;;;;;;25.70;12.85;;;;;;;10.82;51.91;99158.78;5013886;28;20503;-73
2022/04/24 00:37:39;;;;;;;22.15;13.05;;;;;;;10.88;51.78;99168.09;4997432;28;20601;-64
2022/04/24 00:40:05;;;;;;;21.17;12.55;;;;;;;10.86;51.97;99170.03;4997645;28;20036;-65
2022/04/24 00:42:29;;;;;;;22.88;11.23;;;;;;;10.86;52.38;99159.38;4996176;28;20064;-65
2022/04/24 00:44:54;;;;;;;24.70;12.57;;;;;;;10.86;52.11;99162.03;5014582;28;20080;-63
2022/04/24 00:47:22;;;;;;;21.20;12.35;;;;;;;10.90;51.83;99163.50;5014662;28;20479;-64
2022/04/24 00:49:47;;;;;;;19.35;11.10;;;;;;;10.91;51.88;99154.53;5014604;28;20132;-64
2022/04/24 00:52:13;;;;;;;17.77;12.18;;;;;;;10.97;51.59;99162.03;4980184;28;20045;-65
2022/04/24 00:54:38;;;;;;;20.92;11.05;;;;;;;11.09;50.85;99157.53;4996605;28;20434;-63
2022/04/24 00:57:06;;;;;;;22.70;13.05;;;;;;;10.98;51.49;99158.38;5005886;28;20126;-65
2022/04/24 00:59:31;;;;;;;21.45;12.10;;;;;;;10.88;51.63;99160.09;4982358;28;20037;-65
2022/04/24 01:01:56;;;;;;;21.75;11.55;;;;;;;10.82;51.33;99155.28;5013966;28;20526;-64
2022/04/24 01:04:21;;;;;;;18.60;10.93;;;;;;;10.81;51.52;99158.91;5016096;28;20507;-66
2022/04/24 01:06:45;;;;;;;16.00;11.05;;;;;;;10.78;51.24;99149.34;5013952;28;20570;-64
2022/04/24 01:09:20;;;;;;;21.70;12.07;;;;;;;10.84;51.49;99161.31;5015317;28;20029;-64
2022/04/24 01:11:47;;;;;;;25.15;11.48;;;;;;;10.80;51.08;99150.06;5021595;28;20052;-63
2022/04/24 01:14:13;;;;;;;18.38;11.00;;;;;;;10.77;51.50;99146.78;5035039;28;20032;-63
2022/04/24 01:16:39;;;;;;;22.00;12.00;;;;;;;10.84;51.18;99148.81;5016839;28;20056;-64
2022/04/24 01:19:05;;;;;;;21.27;12.30;;;;;;;10.91;50.58;99150.03;5031381;28;20709;-65
2022/04/24 01:21:30;;;;;;;18.42;10.88;;;;;;;10.91;50.50;99144.72;5011112;28;20075;-65
2022/04/24 01:23:55;;;;;;;18.60;11.38;;;;;;;10.95;50.60;99145.28;4998823;28;20906;-65
2022/04/24 01:26:19;;;;;;;25.13;12.07;;;;;;;10.84;50.96;99142.66;5016902;28;20495;-64
2022/04/24 01:28:44;;;;;;;17.98;10.15;;;;;;;10.88;51.03;99146.78;4993391;28;20045;-63
2022/04/24 01:31:09;;;;;;;21.08;11.35;;;;;;;10.80;50.67;99142.06;5015879;28;20491;-64
2022/04/24 01:33:34;;;;;;;21.83;10.70;;;;;;;10.77;51.11;99138.78;5015186;28;20617;-63
2022/04/24 01:35:59;;;;;;;18.85;11.70;;;;;;;10.79;50.79;99144.84;4996015;28;20040;-64
2022/04/24 01:38:24;;;;;;;18.50;12.18;;;;;;;10.83;50.96;99140.97;5014323;28;20832;-63
2022/04/24 01:40:49;;;;;;;22.80;11.88;;;;;;;10.75;50.99;99143.38;5014008;28;20033;-64
2022/04/24 01:43:16;;;;;;;20.98;11.38;;;;;;;10.73;51.25;99135.50;5015592;28;20053;-63
2022/04/24 01:45:40;;;;;;;13.52;8.75;;;;;;;10.81;50.74;99132.25;4979168;28;20045;-65
2022/04/24 01:48:05;;;;;;;15.35;11.57;;;;;;;10.71;51.41;99134.81;4965922;28;20033;-64
2022/04/24 01:50:30;;;;;;;16.08;10.90;;;;;;;10.81;50.91;99133.09;4995380;28;20323;-65
2022/04/24 01:52:55;;;;;;;25.02;11.90;;;;;;;10.78;50.83;99130.66;4995258;28;20067;-64
2022/04/24 01:55:20;;;;;;;18.50;11.13;;;;;;;10.76;51.16;99121.09;5003286;28;20519;-64
2022/04/24 01:57:45;;;;;;;18.98;11.55;;;;;;;10.68;51.41;99127.06;4995029;28;20512;-62
2022/04/24 02:00:10;;;;;;;19.02;11.75;;;;;;;10.67;51.57;99124.50;4977861;28;20056;-63
2022/04/24 02:02:38;;;;;;;16.13;9.60;;;;;;;10.63;51.46;99117.72;4995468;28;20121;-64
2022/04/24 02:05:03;;;;;;;16.85;10.90;;;;;;;10.63;51.70;99123.88;4977730;28;20041;-66
2022/04/24 02:07:28;;;;;;;21.45;10.95;;;;;;;10.65;51.38;99119.28;5005484;28;20041;-65
2022/04/24 02:09:53;;;;;;;20.30;10.18;;;;;;;10.69;51.47;99114.56;4997854;28;20136;-70
2022/04/24 02:12:17;;;;;;;20.33;11.25;;;;;;;10.70;51.46;99114.44;4998175;28;20125;-64
2022/04/24 02:14:42;;;;;;;21.33;11.93;;;;;;;10.70;51.17;99119.78;4982138;28;20075;-63
2022/04/24 02:17:07;;;;;;;20.30;11.80;;;;;;;10.69;50.98;99112.75;4982495;28;20652;-64
2022/04/24 02:19:32;;;;;;;18.75;10.93;;;;;;;10.74;51.03;99104.38;4951791;28;20079;-65
2022/04/24 02:21:56;;;;;;;18.58;10.68;;;;;;;10.78;50.85;99106.66;5005531;28;20140;-68
2022/04/24 02:24:21;;;;;;;16.42;9.57;;;;;;;10.74;51.27;99120.38;4988859;28;20056;-66
2022/04/24 02:26:46;;;;;;;16.75;10.05;;;;;;;10.74;51.19;99115.88;5001043;28;20574;-66
2022/04/24 02:29:10;;;;;;;21.10;10.63;;;;;;;10.72;51.12;99111.66;5001406;28;20491;-66
2022/04/24 02:31:35;;;;;;;22.30;12.20;;;;;;;10.73;51.52;99102.66;5019470;28;20044;-64
2022/04/24 02:34:00;;;;;;;22.15;11.45;;;;;;;10.77;51.44;99099.66;5003253;28;20048;-66
2022/04/24 02:36:25;;;;;;;20.10;9.57;;;;;;;10.76;51.16;99099.75;5001480;28;20036;-65
2022/04/24 02:38:50;;;;;;;16.00;10.20;;;;;;;10.78;50.92;99111.16;5019584;28;20495;-66
2022/04/24 02:41:14;;;;;;;16.52;9.60;;;;;;;10.80;51.08;99101.22;5001388;28;20048;-66
2022/04/24 02:43:39;;;;;;;15.10;9.20;;;;;;;10.81;50.77;99105.59;5024205;28;20056;-63
2022/04/24 02:46:04;;;;;;;15.68;10.13;;;;;;;10.76;51.13;99103.28;5021778;28;20040;-66
2022/04/24 02:48:29;;;;;;;17.50;9.48;;;;;;;10.83;51.07;99108.97;5038721;28;20040;-67
2022/04/24 02:50:54;;;;;;;17.77;9.05;;;;;;;10.81;50.47;99109.09;5038296;28;20515;-66
2022/04/24 02:53:19;;;;;;;18.52;10.45;;;;;;;10.81;50.56;99113.59;5036422;28;20097;-65
2022/04/24 02:55:43;;;;;;;17.58;11.05;;;;;;;10.87;50.74;99113.06;4995552;28;20040;-64
2022/04/24 02:58:08;;;;;;;14.82;9.75;;;;;;;10.86;50.89;99114.88;5018118;28;20060;-64
2022/04/24 03:00:41;;;;;;;16.90;9.80;;;;;;;10.89;50.46;99114.66;5017748;28;20092;-70
2022/04/24 03:03:07;;;;;;;16.50;10.10;;;;;;;10.86;50.51;99114.88;5013706;28;20601;-65
2022/04/24 03:05:32;;;;;;;15.00;8.88;;;;;;;10.87;50.99;99118.41;4996890;28;20057;-65
2022/04/24 03:07:57;;;;;;;14.63;9.40;;;;;;;10.89;50.45;99116.47;5004149;28;20083;-66
2022/04/24 03:10:21;;;;;;;17.90;9.68;;;;;;;10.80;51.00;99120.72;4993539;28;20032;-64
2022/04/24 03:12:46;;;;;;;17.25;10.40;;;;;;;10.82;50.91;99113.47;5002655;28;20134;-65
2022/04/24 03:15:13;;;;;;;15.43;9.05;;;;;;;10.84;50.93;99111.50;5027752;28;20123;-65
2022/04/24 03:17:38;;;;;;;17.33;10.00;;;;;;;10.88;51.10;99114.78;5040601;28;20549;-64
2022/04/24 03:20:08;;;;;;;15.88;10.20;;;;;;;10.83;50.54;99116.97;5007025;28;20705;-64
2022/04/24 03:22:33;;;;;;;14.68;7.47;;;;;;;10.82;50.84;99117.94;4994898;28;20090;-62
2022/04/24 03:24:58;;;;;;;14.98;9.38;;;;;;;10.78;51.19;99121.81;5022414;28;20064;-64
2022/04/24 03:27:23;;;;;;;16.10;8.07;;;;;;;10.87;50.78;99116.59;5020136;28;20093;-64
2022/04/24 03:29:48;;;;;;;15.90;8.95;;;;;;;10.90;50.45;99113.69;5002669;28;20063;-64
2022/04/24 03:32:13;;;;;;;16.40;9.85;;;;;;;10.87;50.88;99121.94;5025491;28;20047;-66
2022/04/24 03:34:38;;;;;;;14.85;8.40;;;;;;;10.84;51.13;99116.81;5023974;28;20124;-65
2022/04/24 03:37:06;;;;;;;11.57;7.60;;;;;;;10.95;50.12;99115.97;5020414;28;20048;-64
2022/04/24 03:39:30;;;;;;;17.90;9.25;;;;;;;10.93;50.35;99119.75;5002701;28;20735;-63
2022/04/24 03:41:56;;;;;;;15.20;8.73;;;;;;;10.90;50.25;99123.50;5020703;28;20519;-64
2022/04/24 03:44:21;;;;;;;18.42;9.63;;;;;;;10.91;50.20;99119.88;5001089;28;20052;-63
2022/04/24 03:46:45;;;;;;;12.73;8.63;;;;;;;11.04;50.22;99122.38;5018648;28;20131;-62
2022/04/24 03:49:10;;;;;;;13.80;8.35;;;;;;;11.12;48.96;99120.78;5021214;28;20123;-64
2022/04/24 03:51:35;;;;;;;15.95;9.15;;;;;;;11.07;49.44;99114.09;5020849;28;20071;-64
2022/04/24 03:54:00;;;;;;;12.27;8.13;;;;;;;11.13;48.91;99113.63;5002232;28;20036;-64
2022/04/24 03:56:25;;;;;;;14.32;7.85;;;;;;;11.17;48.59;99123.09;5015784;28;20514;-62
2022/04/24 03:58:49;;;;;;;13.90;8.50;;;;;;;11.09;49.45;99105.00;4998661;28;20492;-64
2022/04/24 04:01:14;;;;;;;10.73;7.22;;;;;;;11.12;49.00;99115.44;5017071;28;20175;-61
2022/04/24 04:03:40;;;;;;;15.20;8.55;;;;;;;11.11;49.23;99113.75;5016836;28;20036;-64
2022/04/24 04:06:05;;;;;;;17.85;8.68;;;;;;;11.15;49.68;99109.00;5014982;28;20135;-67
2022/04/24 04:08:29;;;;;;;16.42;8.63;;;;;;;11.20;49.38;99104.97;5014652;28;20821;-63
2022/04/24 04:10:54;;;;;;;15.93;8.32;;;;;;;11.29;49.43;99106.03;5014937;28;20411;-66
2022/04/24 04:13:19;;;;;;;16.55;7.35;;;;;;;11.28;49.04;99107.88;5016289;28;20401;-64
2022/04/24 04:15:44;;;;;;;16.25;8.68;;;;;;;11.20;49.23;99101.47;5015367;28;20072;-62
2022/04/24 04:18:09;;;;;;;18.58;8.70;;;;;;;11.21;49.79;99100.50;5016215;28;20075;-63
2022/04/24 04:20:34;;;;;;;17.17;10.27;;;;;;;11.29;49.78;99101.53;4998419;28;20408;-62
2022/04/24 04:22:58;;;;;;;14.18;8.45;;;;;;;11.34;49.46;99105.66;5014595;28;20045;-64
2022/04/24 04:25:24;;;;;;;14.25;7.75;;;;;;;11.37;49.33;99102.75;5015887;28;20123;-63
2022/04/24 04:27:48;;;;;;;18.17;9.07;;;;;;;11.41;49.58;99093.50;5015934;28;20036;-64
2022/04/24 04:30:13;;;;;;;16.75;7.85;;;;;;;11.46;49.63;99088.63;5015974;28;20103;-65
2022/04/24 04:32:38;;;;;;;12.02;7.55;;;;;;;11.57;49.28;99094.75;5015997;28;20399;-65
2022/04/24 04:35:04;;;;;;;17.95;8.95;;;;;;;11.50;49.54;99087.41;5016209;28;20411;-65
2022/04/24 04:37:29;;;;;;;16.98;8.85;;;;;;;11.46;49.92;99085.97;5015958;28;20131;-65
2022/04/24 04:39:54;;;;;;;14.45;8.40;;;;;;;11.52;49.68;99082.75;5016019;28;20178;-65
2022/04/24 04:42:18;;;;;;;14.40;8.45;;;;;;;11.41;50.28;99088.16;5016367;28;20033;-65
2022/04/24 04:44:44;;;;;;;16.02;8.85;;;;;;;11.41;49.71;99094.34;5026845;28;20518;-65
2022/04/24 04:47:08;;;;;;;24.08;9.15;;;;;;;11.48;49.87;99084.00;5047156;28;20052;-65
2022/04/24 04:49:33;;;;;;;17.05;9.05;;;;;;;11.35;50.24;99096.69;5025292;28;20503;-64
2022/04/24 04:51:58;;;;;;;13.80;8.02;;;;;;;11.32;50.55;99094.25;5039492;28;20044;-64
2022/04/24 04:54:22;;;;;;;17.38;8.57;;;;;;;11.34;50.23;99092.31;5027473;28;20040;-65
2022/04/24 04:56:47;;;;;;;23.48;9.07;;;;;;;11.49;49.97;99091.91;5002438;28;20078;-65
2022/04/24 04:59:12;;;;;;;17.67;9.00;;;;;;;11.50;49.93;99085.59;5035239;28;20071;-65
2022/04/24 05:01:37;;;;;;;15.27;8.30;;;;;;;11.55;49.78;99086.03;5033568;28;20049;-65
2022/04/24 05:04:01;;;;;;;15.98;9.45;;;;;;;11.45;50.29;99087.78;5017159;28;20072;-66
2022/04/24 05:06:26;;;;;;;14.38;8.95;;;;;;;11.44;50.56;99087.91;5034929;28;20087;-65
2022/04/24 05:08:51;;;;;;;17.15;8.73;;;;;;;11.37;50.84;99092.91;5017043;28;20047;-65
2022/04/24 05:11:15;;;;;;;17.23;8.43;;;;;;;11.48;50.26;99086.69;5017435;28;20057;-65
2022/04/24 05:13:40;;;;;;;19.67;9.95;;;;;;;11.53;50.11;99079.13;5035017;28;20417;-66
2022/04/24 05:16:05;;;;;;;21.85;8.90;;;;;;;11.53;49.80;99087.97;5034983;28;20041;-68
2022/04/24 05:18:30;;;;;;;19.13;10.30;;;;;;;11.42;49.99;99073.84;5017356;28;20142;-67
2022/04/24 05:20:56;;;;;;;18.67;8.88;;;;;;;11.40;50.51;99081.16;5035264;28;20380;-66
2022/04/24 05:23:21;;;;;;;20.15;8.73;;;;;;;11.45;50.40;99073.59;5017391;28;20042;-67
2022/04/24 05:25:45;;;;;;;19.10;9.20;;;;;;;11.43;50.40;99081.72;5017394;28;20135;-67
2022/04/24 05:28:10;;;;;;;21.45;9.20;;;;;;;11.33;50.93;99095.97;5018330;28;20040;-66
2022/04/24 05:30:35;;;;;;;14.90;9.18;;;;;;;11.37;50.78;99084.06;5038959;28;20089;-66
2022/04/24 05:33:00;;;;;;;19.50;9.18;;;;;;;11.48;50.32;99078.66;5036503;28;20040;-67
2022/04/24 05:35:25;;;;;;;20.33;8.57;;;;;;;11.54;50.01;99079.00;5035350;28;20499;-67
2022/04/24 05:37:50;;;;;;;23.17;9.82;;;;;;;11.42;50.70;99074.69;5035103;28;20503;-67
2022/04/24 05:40:16;;;;;;;16.13;9.15;;;;;;;11.43;51.20;99083.53;5035205;28;20032;-67
2022/04/24 05:42:49;;;;;;;20.25;9.32;;;;;;;11.47;50.66;99077.81;4984832;28;20052;-67
2022/04/24 05:45:15;;;;;;;17.75;9.25;;;;;;;11.46;50.93;99064.59;5017085;28;20495;-66
2022/04/24 05:47:43;;;;;;;16.52;8.77;;;;;;;11.39;51.05;99069.63;5017121;28;20063;-67
2022/04/24 05:50:08;;;;;;;18.15;9.43;;;;;;;11.42;51.30;99065.81;5037867;28;20388;-67
2022/04/24 05:52:33;;;;;;;20.30;8.70;;;;;;;11.49;50.99;99064.34;5021198;28;20086;-67
2022/04/24 05:54:58;;;;;;;22.30;8.15;;;;;;;11.48;51.06;99078.66;5039352;28;20044;-67
2022/04/24 05:57:22;;;;;;;28.60;9.13;;;;;;;11.57;50.35;99075.22;5037326;28;20419;-67
2022/04/24 05:59:47;;;;;;;18.40;9.18;;;;;;;11.53;50.72;99061.28;5038937;28;20083;-67
2022/04/24 06:02:12;;;;;;;15.35;9.25;;;;;;;11.54;51.08;99070.13;5004302;28;20487;-66
2022/04/24 06:04:36;;;;;;;22.60;9.23;;;;;;;11.59;50.76;99055.44;5038750;28;20499;-67
2022/04/24 06:07:01;;;;;;;24.02;9.00;;;;;;;11.69;50.80;99054.66;5020625;28;20042;-69
2022/04/24 06:09:26;;;;;;;18.42;9.30;;;;;;;11.66;50.84;99045.06;5038285;28;20123;-69
2022/04/24 06:11:53;;;;;;;20.77;9.30;;;;;;;11.64;51.49;99060.38;5038679;28;20044;-68
2022/04/24 06:14:17;;;;;;;28.25;12.40;;;;;;;11.73;50.81;99048.94;5003962;28;20126;-67
2022/04/24 06:16:42;;;;;;;24.48;9.88;;;;;;;11.77;50.82;99047.69;5038415;28;20123;-68
2022/04/24 06:19:07;;;;;;;24.55;10.05;;;;;;;11.77;50.82;99047.69;5038350;28;20052;-67
2022/04/24 06:21:31;;;;;;;25.27;10.65;;;;;;;11.76;50.63;99046.00;5037076;28;20043;-67
2022/04/24 06:23:56;;;;;;;17.40;9.20;;;;;;;11.90;50.36;99042.16;5037293;28;20041;-66
2022/04/24 06:26:21;;;;;;;19.42;9.75;;;;;;;11.90;50.57;99050.16;5020625;28;20040;-67
2022/04/24 06:28:45;;;;;;;21.92;9.68;;;;;;;11.87;50.38;99039.72;5038294;28;20097;-68
2022/04/24 06:31:10;;;;;;;20.60;9.27;;;;;;;11.95;49.70;99048.81;5020089;28;20110;-68
2022/04/24 06:33:35;;;;;;;11.65;8.20;;;;;;;11.95;49.79;99037.28;5038862;28;20048;-67
2022/04/24 06:36:01;;;;;;;16.30;8.38;;;;;;;12.00;49.55;99045.72;5040022;28;20090;-67
2022/04/24 06:38:26;;;;;;;17.45;8.82;;;;;;;12.03;49.62;99040.13;5021507;28;20414;-67
2022/04/24 06:40:50;;;;;;;17.27;8.63;;;;;;;12.00;49.47;99043.88;5038515;28;20040;-66
2022/04/24 06:43:15;;;;;;;15.95;9.18;;;;;;;11.96;50.27;99034.44;5024260;28;20550;-67
2022/04/24 06:45:41;;;;;;;16.75;9.32;;;;;;;11.99;49.91;99044.03;5018042;28;20060;-66
2022/04/24 06:48:16;;;;;;;18.92;9.52;;;;;;;12.06;50.01;99039.00;4984138;28;20132;-67
2022/04/24 06:50:43;;;;;;;14.73;9.52;;;;;;;12.06;49.43;99041.69;5017089;28;20041;-67
2022/04/24 06:53:11;;;;;;;15.45;8.57;;;;;;;11.98;50.44;99045.00;5000035;28;20048;-68
2022/04/24 06:55:41;;;;;;;20.27;8.88;;;;;;;12.07;50.04;99033.53;5018618;28;20049;-68
2022/04/24 06:58:07;;;;;;;18.38;8.52;;;;;;;12.07;50.08;99038.88;5016522;28;20049;-67
2022/04/24 07:00:36;;;;;;;17.23;8.40;;;;;;;12.14;49.44;99029.34;5000182;28;20128;-67
2022/04/24 07:03:18;;;;;;;22.35;9.98;;;;;;;12.25;49.31;99034.59;5017962;28;20415;-67
2022/04/24 07:05:43;;;;;;;20.83;9.00;;;;;;;12.16;49.46;99022.03;5018338;28;20116;-67
2022/04/24 07:08:09;;;;;;;22.15;9.77;;;;;;;12.20;49.71;99038.63;5000090;28;20127;-67
2022/04/24 07:10:34;;;;;;;14.70;8.20;;;;;;;12.28;49.23;99028.13;5017629;28;20080;-67
2022/04/24 07:12:59;;;;;;;11.90;7.13;;;;;;;12.35;49.09;99023.91;5018359;28;20051;-72
2022/04/24 07:15:24;;;;;;;16.10;8.43;;;;;;;12.34;48.31;99041.78;5000436;28;20072;-66
2022/04/24 07:17:51;;;;;;;17.38;8.45;;;;;;;12.41;48.41;99030.56;5018018;28;20472;-66
2022/04/24 07:20:17;;;;;;;17.58;8.50;;;;;;;12.44;48.32;99031.13;5017939;28;20033;-67
2022/04/24 07:22:53;;;;;;;16.50;9.30;;;;;;;12.44;48.22;99022.25;4982811;28;20049;-68
2022/04/24 07:25:21;;;;;;;14.82;8.45;;;;;;;12.42;48.50;99030.41;5015158;28;20037;-66
2022/04/24 07:27:46;;;;;;;17.40;8.95;;;;;;;12.55;48.09;99036.34;5017567;28;20597;-67
2022/04/24 07:30:13;;;;;;;18.02;8.07;;;;;;;12.62;48.11;99034.00;5017501;28;20044;-67
2022/04/24 07:32:39;;;;;;;12.63;8.07;;;;;;;12.62;47.72;99034.84;5017185;28;20061;-66
2022/04/24 07:35:04;;;;;;;17.92;8.95;;;;;;;12.70;48.01;99026.13;4999156;28;20049;-67
2022/04/24 07:37:32;;;;;;;14.95;8.93;;;;;;;12.65;47.73;99013.16;5017147;28;20484;-67
2022/04/24 07:39:58;;;;;;;14.77;8.30;;;;;;;12.72;48.02;99018.81;4999166;28;20045;-67
2022/04/24 07:42:23;;;;;;;15.60;8.55;;;;;;;12.74;47.60;99011.50;5017522;28;20473;-68
2022/04/24 07:44:51;;;;;;;14.88;8.70;;;;;;;12.93;46.58;99005.31;4983430;28;20105;-67
2022/04/24 07:47:15;;;;;;;14.85;9.00;;;;;;;12.91;47.48;99012.63;4999530;28;20045;-67
2022/04/24 07:49:41;;;;;;;21.08;10.23;;;;;;;12.93;47.13;99008.84;5017165;28;20036;-67
2022/04/24 07:52:06;;;;;;;22.65;9.57;;;;;;;12.98;47.54;99006.56;5017515;28;20041;-68
2022/04/24 07:54:30;;;;;;;18.88;9.15;;;;;;;13.06;47.36;99008.56;5016754;28;20032;-67
2022/04/24 07:56:55;;;;;;;19.35;8.93;;;;;;;13.15;46.97;99004.22;5015534;28;20044;-67
2022/04/24 07:59:20;;;;;;;15.57;9.13;;;;;;;13.22;46.75;99002.66;5017367;28;20041;-69
2022/04/24 08:01:45;;;;;;;16.70;8.82;;;;;;;13.25;47.17;99007.72;4999659;28;20052;-67
2022/04/24 08:04:09;;;;;;;22.35;9.48;;;;;;;13.27;46.75;98998.59;5017279;28;20396;-66
2022/04/24 08:06:34;;;;;;;15.05;9.18;;;;;;;13.29;47.31;99006.47;5017396;28;20417;-68
2022/04/24 08:08:59;;;;;;;17.00;9.27;;;;;;;13.31;47.08;98999.16;5017157;28;20059;-67
2022/04/24 08:11:23;;;;;;;19.27;8.98;;;;;;;13.27;47.14;98997.75;5015681;28;20041;-66
2022/04/24 08:13:48;;;;;;;18.25;8.95;;;;;;;13.43;46.81;98998.00;5015822;28;20502;-68
2022/04/24 08:16:13;;;;;;;19.13;9.65;;;;;;;13.47;45.97;99006.59;5016442;28;20079;-69
2022/04/24 08:18:38;;;;;;;12.30;8.70;;;;;;;13.50;45.88;98999.13;5021773;28;20036;-67
2022/04/24 08:21:03;;;;;;;19.77;8.40;;;;;;;13.52;45.71;98996.31;5015916;28;20037;-67
2022/04/24 08:23:28;;;;;;;17.77;9.23;;;;;;;13.40;46.30;98998.28;5017015;28;20048;-68
2022/04/24 08:25:54;;;;;;;16.17;8.75;;;;;;;13.40;46.37;98992.94;5016909;28;20483;-66
2022/04/24 08:28:21;;;;;;;14.45;9.65;;;;;;;13.48;46.53;98992.22;4984485;28;20036;-67
2022/04/24 08:30:48;;;;;;;15.15;9.38;;;;;;;13.51;45.62;99006.16;5024997;28;20049;-67
2022/04/24 08:33:13;;;;;;;13.90;8.95;;;;;;;13.49;46.47;98988.53;5015593;28;20045;-67
2022/04/24 08:35:38;;;;;;;21.73;9.40;;;;;;;13.47;46.19;98994.03;5030503;28;20048;-66
2022/04/24 08:38:04;;;;;;;18.20;9.52;;;;;;;13.52;46.52;98993.63;5014995;28;20052;-68
2022/04/24 08:40:29;;;;;;;20.83;9.45;;;;;;;13.75;45.82;98994.97;5011863;28;20144;-68
2022/04/24 08:42:57;;;;;;;20.92;9.02;;;;;;;13.94;45.63;98992.22;5032088;28;20148;-68
2022/04/24 08:45:26;;;;;;;16.58;8.02;;;;;;;14.15;45.27;98984.78;5015396;28;20116;-67
2022/04/24 08:47:51;;;;;;;13.45;8.40;;;;;;;14.23;45.08;98989.41;5033784;28;20063;-68
2022/04/24 08:50:16;;;;;;;17.85;9.82;;;;;;;14.42;44.72;98985.84;5013040;28;20068;-67
2022/04/24 08:52:44;;;;;;;13.63;9.27;;;;;;;14.53;44.35;98993.66;5029037;28;20044;-68
2022/04/24 08:55:09;;;;;;;16.55;9.30;;;;;;;14.53;44.44;98988.31;5013971;28;20045;-68
2022/04/24 08:57:34;;;;;;;13.73;8.18;;;;;;;14.61;44.55;98991.06;5032420;28;20045;-67
2022/04/24 09:00:00;;;;;;;13.80;8.32;;;;;;;14.78;43.80;98990.25;5030369;28;20048;-67
2022/04/24 09:02:25;;;;;;;14.57;10.20;;;;;;;14.98;44.09;98993.66;5030874;28;20040;-67
2022/04/24 09:04:52;;;;;;;21.85;9.27;;;;;;;15.21;43.15;98994.88;5030869;28;20045;-68
2022/04/24 09:07:17;;;;;;;21.90;9.55;;;;;;;15.34;42.96;98989.09;5014388;28;20048;-67
2022/04/24 09:09:49;;;;;;;14.45;9.10;;;;;;;15.50;42.77;98983.84;5030626;28;20040;-67
2022/04/24 09:12:23;;;;;;;18.67;9.93;;;;;;;15.84;42.42;98975.00;5031630;28;20484;-67
2022/04/24 09:14:49;;;;;;;13.63;8.95;;;;;;;16.27;41.31;98974.88;5029999;28;20175;-66
2022/04/24 09:17:18;;;;;;;15.50;8.40;;;;;;;16.66;40.95;98987.84;5029846;28;20045;-67
2022/04/24 09:19:44;;;;;;;15.82;9.20;;;;;;;16.81;39.95;98966.53;5012114;28;20217;-67
2022/04/24 09:22:10;;;;;;;20.50;9.52;;;;;;;17.06;40.05;98969.06;5013189;28;20096;-66
2022/04/24 09:24:55;;;;;;;17.98;8.13;;;;;;;17.27;39.82;98962.31;5027110;28;20051;-64
2022/04/24 09:27:25;;;;;;;17.80;8.43;;;;;;;17.35;38.97;98962.34;5017168;28;20049;-64
2022/04/24 09:29:54;;;;;;;14.73;8.13;;;;;;;17.52;38.92;98955.91;5017033;28;20053;-63
2022/04/24 09:32:19;;;;;;;13.13;8.00;;;;;;;17.92;38.40;98960.44;4998603;28;20568;-64
2022/04/24 09:34:44;;;;;;;14.45;8.48;;;;;;;18.64;37.35;98955.75;5016985;28;20536;-63
2022/04/24 09:37:11;;;;;;;16.58;7.93;;;;;;;19.09;36.36;98965.75;4997608;28;20041;-65
2022/04/24 09:39:38;;;;;;;19.73;7.68;;;;;;;19.10;36.03;98956.63;5015979;28;20558;-63
2022/04/24 09:42:08;;;;;;;17.52;8.10;;;;;;;18.93;36.40;98960.47;5015666;28;20037;-64
2022/04/24 09:44:40;;;;;;;14.85;7.43;;;;;;;18.59;36.82;98960.84;5013646;28;20095;-64
2022/04/24 09:47:06;;;;;;;15.45;8.20;;;;;;;17.85;37.94;98951.34;4997396;28;20131;-64
2022/04/24 09:49:41;;;;;;;15.32;8.32;;;;;;;17.49;38.38;98948.19;5014840;28;20041;-63
2022/04/24 09:52:16;;;;;;;21.08;8.95;;;;;;;16.97;39.60;98955.75;5015261;28;20057;-64
2022/04/24 09:54:43;;;;;;;12.10;7.70;;;;;;;16.51;40.30;98947.22;4998745;28;20044;-64
2022/04/24 09:57:09;;;;;;;13.70;8.77;;;;;;;16.31;41.23;98957.44;5034915;28;20066;-65
2022/04/24 09:59:36;;;;;;;19.50;8.95;;;;;;;15.98;42.32;98955.59;5035072;28;20032;-65
2022/04/24 10:02:03;;;;;;;21.48;8.98;;;;;;;15.88;42.85;98957.56;5034915;28;20106;-67
2022/04/24 10:04:27;;;;;;;10.25;8.75;;;;;;;16.06;42.86;98952.09;5033805;28;20071;-65
2022/04/24 10:06:53;;;;;;;16.67;8.68;;;;;;;16.40;41.66;98950.22;5034531;28;20170;-65
2022/04/24 10:09:43;;;;;;;19.40;7.75;;;;;;;16.70;41.58;98951.53;5019466;28;20045;-68
2022/04/24 10:12:30;;;;;;;10.55;6.57;;;;;;;16.91;41.10;98937.59;5019911;28;20506;-65
2022/04/24 10:15:00;;;;;;;13.77;7.07;;;;;;;17.10;40.08;98944.50;5035493;28;20048;-66
2022/04/24 10:17:55;;;;;;;10.10;6.35;;;;;;;17.16;39.66;98949.19;5020358;28;20056;-69
2022/04/24 10:20:26;;;;;;;9.57;5.90;;;;;;;17.03;39.47;98930.88;5003384;28;20411;-66
2022/04/24 10:22:54;;;;;;;8.20;5.68;;;;;;;16.76;40.09;98934.72;5036517;28;20127;-67
2022/04/24 10:25:38;;;;;;;8.73;5.82;;;;;;;16.60;40.45;98943.53;5033887;28;20121;-66
2022/04/24 10:28:16;;;;;;;6.53;4.88;;;;;;;16.67;40.23;98950.00;5034037;28;20486;-65
2022/04/24 10:30:42;;;;;;;5.90;4.22;;;;;;;16.51;40.18;98941.00;5034519;28;20044;-64
2022/04/24 10:33:22;;;;;;;11.13;6.30;;;;;;;15.86;42.28;98948.81;5001318;28;20125;-66
2022/04/24 10:35:48;;;;;;;9.05;4.93;;;;;;;15.49;43.14;98949.06;5002622;28;20145;-64
2022/04/24 10:38:44;;;;;;;8.68;5.82;;;;;;;15.09;44.56;98965.72;5010011;28;20056;-66
2022/04/24 10:41:15;;;;;;;9.60;5.78;;;;;;;15.25;43.80;98958.63;5038525;28;20044;-64
2022/04/24 10:43:46;;;;;;;8.93;6.07;;;;;;;14.94;44.39;98964.56;5034286;28;20095;-65
2022/04/24 10:46:41;;;;;;;8.50;5.05;;;;;;;15.01;44.32;98971.03;5021395;28;20495;-65
2022/04/24 10:49:11;;;;;;;8.90;5.82;;;;;;;14.69;46.43;98982.25;4999025;28;20045;-66
2022/04/24 10:51:39;;;;;;;10.20;6.43;;;;;;;14.71;46.15;98986.47;5009291;28;20068;-66
2022/04/24 10:54:08;;;;;;;10.02;5.43;;;;;;;14.94;46.24;98972.63;5003315;28;20041;-67
2022/04/24 10:56:35;;;;;;;9.00;6.55;;;;;;;14.51;47.31;98983.09;5003815;28;20152;-65
2022/04/24 10:59:11;;;;;;;10.43;6.47;;;;;;;14.67;47.90;98985.09;5001871;28;20538;-64
2022/04/24 11:01:37;;;;;;;6.70;5.03;;;;;;;14.83;46.57;98992.47;5002150;28;20045;-67
2022/04/24 11:04:07;;;;;;;7.95;6.10;;;;;;;14.90;47.04;99002.44;4991842;28;20092;-68
2022/04/24 11:06:32;;;;;;;8.48;6.35;;;;;;;14.60;49.29;98997.44;5003590;28;20500;-68
2022/04/24 11:09:09;;;;;;;8.38;6.70;;;;;;;14.60;49.33;98996.59;4999595;28;20415;-67
2022/04/24 11:11:50;;;;;;;13.48;8.52;;;;;;;14.61;50.06;98999.13;4997459;28;20052;-67
2022/04/24 11:14:25;;;;;;;10.25;7.97;;;;;;;14.56;49.78;98997.91;4998838;28;20412;-70
2022/04/24 11:16:56;;;;;;;10.05;8.05;;;;;;;14.55;51.31;99005.09;4979434;28;20555;-69
2022/04/24 11:19:23;;;;;;;12.13;8.27;;;;;;;14.47;51.25;98988.88;4986792;28;20041;-67
2022/04/24 11:21:57;;;;;;;10.75;7.93;;;;;;;14.49;51.70;98998.47;5004747;28;20045;-67